Time;durP1;ratioP1;P1;durP2;ratioP2;P2;SDS_P1;SDS_P2;PMS_P1;PMS_P2;Temp;Humidity;BMP_temperature;BMP_pressure;BME280_temperature;BME280_humidity;BME280_pressure;Samples;Min_cycle;Max_cycle;Signal;HPM_P1;HPM_P2
2022/05/31 00:00:55;;;;;;;3.58;1.10;;;;;;;;;;5062406;28;20109;-71
2022/05/31 00:03:21;;;;;;;4.10;1.60;;;;;;;;;;5066024;28;20048;-71
2022/05/31 00:05:47;;;;;;;2.42;1.23;;;;;;;;;;5074413;28;20043;-71
2022/05/31 00:08:13;;;;;;;2.25;1.10;;;;;;;;;;5076252;28;20478;-71
2022/05/31 00:10:39;;;;;;;2.58;1.30;;;;;;;;;;5066705;28;20116;-71
2022/05/31 00:13:05;;;;;;;3.63;1.10;;;;;;;;;;5070821;28;20119;-71
2022/05/31 00:15:32;;;;;;;3.10;1.52;;;;;;;;;;5055386;28;20024;-71
2022/05/31 00:17:58;;;;;;;4.07;1.00;;;;;;;;;;5063094;28;20036;-71
2022/05/31 00:20:24;;;;;;;1.40;1.30;;;;;;;;;;5051275;28;20020;-71
2022/05/31 00:22:51;;;;;;;3.40;1.17;;;;;;;;;;5070755;28;20170;-71
2022/05/31 00:25:17;;;;;;;6.78;1.20;;;;;;;;;;5081659;28;20053;-71
2022/05/31 00:27:43;;;;;;;1.75;1.10;;;;;;;;;;5079515;28;20024;-71
2022/05/31 00:30:11;;;;;;;2.38;1.40;;;;;;;;;;5073586;28;20032;-70
2022/05/31 00:32:38;;;;;;;2.40;1.13;;;;;;;;;;5071145;28;20041;-71
2022/05/31 00:35:09;;;;;;;2.22;1.30;;;;;;;;;;5070826;28;20040;-71
2022/05/31 00:37:35;;;;;;;1.30;1.00;;;;;;;;;;5064608;28;20028;-71
2022/05/31 00:40:01;;;;;;;1.40;1.08;;;;;;;;;;5059892;28;20029;-71
2022/05/31 00:42:27;;;;;;;1.92;1.10;;;;;;;;;;5069058;28;20047;-71
2022/05/31 00:44:53;;;;;;;1.35;1.05;;;;;;;;;;5081107;28;20043;-72
2022/05/31 00:47:20;;;;;;;2.55;1.27;;;;;;;;;;5072037;28;20032;-72
2022/05/31 00:50:00;;;;;;;2.92;1.67;;;;;;;;;;5075932;28;20036;-71
2022/05/31 00:52:30;;;;;;;3.85;1.48;;;;;;;;;;5064667;28;20108;-71
2022/05/31 00:55:03;;;;;;;2.97;1.40;;;;;;;;;;5089407;28;20090;-71
2022/05/31 00:57:30;;;;;;;1.70;1.60;;;;;;;;;;5079032;28;20415;-71
2022/05/31 00:59:59;;;;;;;3.13;1.25;;;;;;;;;;5069836;28;20071;-71
2022/05/31 01:02:25;;;;;;;3.45;1.45;;;;;;;;;;5068631;28;20527;-71
2022/05/31 01:04:55;;;;;;;2.30;1.50;;;;;;;;;;5057266;28;20048;-72
2022/05/31 01:07:21;;;;;;;3.03;1.33;;;;;;;;;;5074652;28;20048;-71
2022/05/31 01:09:47;;;;;;;4.20;1.33;;;;;;;;;;5077905;28;20038;-71
2022/05/31 01:12:14;;;;;;;2.50;1.65;;;;;;;;;;5073790;28;20039;-71
2022/05/31 01:14:41;;;;;;;2.28;1.30;;;;;;;;;;5086849;28;20032;-71
2022/05/31 01:17:14;;;;;;;2.33;1.20;;;;;;;;;;5077348;28;20029;-71
2022/05/31 01:19:55;;;;;;;2.53;1.67;;;;;;;;;;5054494;28;20737;-71
2022/05/31 01:22:22;;;;;;;2.13;1.38;;;;;;;;;;5073710;28;20039;-71
2022/05/31 01:24:52;;;;;;;4.63;1.77;;;;;;;;;;5066262;28;20405;-71
2022/05/31 01:27:26;;;;;;;1.88;1.70;;;;;;;;;;5067184;28;20060;-71
2022/05/31 01:29:52;;;;;;;3.28;1.63;;;;;;;;;;5072995;28;20024;-71
2022/05/31 01:32:18;;;;;;;2.63;1.58;;;;;;;;;;5071565;28;20033;-71
2022/05/31 01:34:54;;;;;;;3.40;1.90;;;;;;;;;;5072266;28;20047;-71
2022/05/31 01:37:22;;;;;;;2.00;1.80;;;;;;;;;;5055011;28;20037;-71
2022/05/31 01:39:51;;;;;;;2.22;1.85;;;;;;;;;;5055033;28;20171;-71
2022/05/31 01:42:25;;;;;;;2.05;1.75;;;;;;;;;;5073710;28;20349;-71
2022/05/31 01:44:53;;;;;;;5.78;1.80;;;;;;;;;;5056942;28;20116;-71
2022/05/31 01:47:19;;;;;;;2.28;1.48;;;;;;;;;;5058119;28;20033;-71
2022/05/31 01:49:47;;;;;;;4.10;1.90;;;;;;;;;;5072543;28;20103;-71
2022/05/31 01:52:13;;;;;;;3.42;2.00;;;;;;;;;;5071331;28;20021;-71
2022/05/31 01:54:40;;;;;;;3.22;1.77;;;;;;;;;;5090350;28;20036;-71
2022/05/31 01:57:07;;;;;;;2.33;1.92;;;;;;;;;;5074515;28;20403;-71
2022/05/31 01:59:37;;;;;;;3.10;1.70;;;;;;;;;;5074338;28;20480;-71
2022/05/31 02:02:03;;;;;;;3.58;1.75;;;;;;;;;;5062313;28;20103;-71
2022/05/31 02:04:29;;;;;;;3.05;2.08;;;;;;;;;;5075608;28;20039;-71
2022/05/31 02:07:10;;;;;;;1.90;1.70;;;;;;;;;;5075185;28;20158;-71
2022/05/31 02:09:37;;;;;;;3.25;1.58;;;;;;;;;;5087847;28;20434;-71
2022/05/31 02:12:04;;;;;;;5.00;1.98;;;;;;;;;;5081009;28;20036;-71
2022/05/31 02:14:30;;;;;;;2.58;1.60;;;;;;;;;;5090733;28;20365;-71
2022/05/31 02:16:55;;;;;;;2.40;1.85;;;;;;;;;;5075875;28;20040;-71
2022/05/31 02:19:28;;;;;;;2.90;1.70;;;;;;;;;;5074744;28;20192;-71
2022/05/31 02:21:54;;;;;;;3.75;1.70;;;;;;;;;;5074137;28;20082;-71
2022/05/31 02:24:21;;;;;;;3.15;1.90;;;;;;;;;;5076528;28;20028;-71
2022/05/31 02:26:47;;;;;;;5.07;1.92;;;;;;;;;;5054639;28;20032;-71
2022/05/31 02:29:17;;;;;;;3.97;1.90;;;;;;;;;;5071716;28;20033;-71
2022/05/31 02:31:44;;;;;;;4.53;2.15;;;;;;;;;;5073894;28;20024;-71
2022/05/31 02:34:11;;;;;;;2.85;1.70;;;;;;;;;;5064728;28;20040;-71
2022/05/31 02:36:37;;;;;;;4.90;1.85;;;;;;;;;;5073027;28;20032;-71
2022/05/31 02:39:04;;;;;;;3.35;1.73;;;;;;;;;;5071428;28;20060;-71
2022/05/31 02:41:31;;;;;;;2.72;1.80;;;;;;;;;;5048444;28;20043;-71
2022/05/31 02:43:57;;;;;;;4.07;2.00;;;;;;;;;;5081739;28;20039;-71
2022/05/31 02:46:23;;;;;;;2.58;1.90;;;;;;;;;;5054334;28;20037;-71
2022/05/31 02:48:49;;;;;;;2.60;1.77;;;;;;;;;;5093603;28;20059;-71
2022/05/31 02:51:16;;;;;;;2.67;1.70;;;;;;;;;;5085769;28;20091;-71
2022/05/31 02:53:42;;;;;;;2.92;1.90;;;;;;;;;;5065982;28;20036;-71
2022/05/31 02:56:08;;;;;;;1.80;1.70;;;;;;;;;;5078664;28;20043;-71
2022/05/31 02:58:34;;;;;;;3.28;1.80;;;;;;;;;;5072517;28;20025;-71
2022/05/31 03:01:00;;;;;;;1.45;1.33;;;;;;;;;;5079480;28;20028;-72
2022/05/31 03:03:27;;;;;;;3.00;1.65;;;;;;;;;;5075639;28;20147;-72
2022/05/31 03:05:53;;;;;;;1.80;1.63;;;;;;;;;;5053203;28;20029;-72
2022/05/31 03:08:20;;;;;;;4.22;2.10;;;;;;;;;;5069896;28;20494;-72
2022/05/31 03:10:49;;;;;;;2.38;1.73;;;;;;;;;;5072805;28;20076;-71
2022/05/31 03:13:17;;;;;;;2.70;1.50;;;;;;;;;;5068287;28;20544;-71
2022/05/31 03:15:43;;;;;;;5.53;2.00;;;;;;;;;;5058274;28;20074;-71
2022/05/31 03:18:15;;;;;;;4.38;2.00;;;;;;;;;;5072290;28;20028;-71
2022/05/31 03:20:41;;;;;;;3.20;2.00;;;;;;;;;;5072559;28;20028;-71
2022/05/31 03:23:14;;;;;;;2.65;1.80;;;;;;;;;;5077560;28;20028;-71
2022/05/31 03:25:40;;;;;;;3.03;2.60;;;;;;;;;;5076222;28;20538;-71
2022/05/31 03:28:07;;;;;;;2.33;1.80;;;;;;;;;;5070529;28;20097;-71
2022/05/31 03:30:36;;;;;;;2.85;2.10;;;;;;;;;;5055198;28;20468;-72
2022/05/31 03:33:03;;;;;;;2.13;1.85;;;;;;;;;;5072442;28;20028;-71
2022/05/31 03:35:29;;;;;;;11.23;2.80;;;;;;;;;;5088541;28;20036;-71
2022/05/31 03:37:55;;;;;;;3.00;1.85;;;;;;;;;;5072049;28;20115;-71
2022/05/31 03:43:05;;;;;;;3.50;1.90;;;;;;;;;;5063430;28;20036;-71
2022/05/31 03:45:33;;;;;;;3.08;1.98;;;;;;;;;;5083859;28;20059;-71
2022/05/31 03:47:59;;;;;;;3.72;2.30;;;;;;;;;;5073113;28;20471;-71
2022/05/31 03:50:25;;;;;;;3.97;2.05;;;;;;;;;;5092302;28;20107;-71
2022/05/31 03:52:51;;;;;;;2.97;2.20;;;;;;;;;;5080546;28;20306;-71
2022/05/31 03:55:17;;;;;;;2.47;2.03;;;;;;;;;;5073295;28;20060;-71
2022/05/31 03:57:43;;;;;;;3.00;2.20;;;;;;;;;;5071082;28;20089;-71
2022/05/31 04:00:11;;;;;;;2.58;1.88;;;;;;;;;;5073479;28;20060;-71
2022/05/31 04:02:37;;;;;;;4.07;2.13;;;;;;;;;;5072236;28;20040;-71
2022/05/31 04:05:03;;;;;;;6.28;1.98;;;;;;;;;;5074794;28;20039;-71
2022/05/31 04:07:30;;;;;;;3.00;2.28;;;;;;;;;;5083197;28;20048;-71
2022/05/31 04:09:56;;;;;;;2.90;1.95;;;;;;;;;;5057939;28;20113;-72
2022/05/31 04:12:22;;;;;;;6.18;2.60;;;;;;;;;;5070638;28;20044;-71
2022/05/31 04:14:48;;;;;;;3.90;2.05;;;;;;;;;;5049813;28;20134;-71
2022/05/31 04:17:14;;;;;;;2.55;2.35;;;;;;;;;;5074997;28;20028;-71
2022/05/31 04:19:40;;;;;;;5.63;2.83;;;;;;;;;;5082788;28;20032;-71
2022/05/31 04:22:06;;;;;;;3.42;2.50;;;;;;;;;;5069789;28;20357;-71
2022/05/31 04:24:33;;;;;;;3.03;2.10;;;;;;;;;;5071126;28;20048;-71
2022/05/31 04:26:59;;;;;;;3.28;2.47;;;;;;;;;;5079428;28;20028;-72
2022/05/31 04:29:25;;;;;;;3.28;2.60;;;;;;;;;;5091710;28;20081;-71
2022/05/31 04:31:51;;;;;;;3.92;2.05;;;;;;;;;;5063112;28;20037;-71
2022/05/31 04:34:17;;;;;;;9.05;2.75;;;;;;;;;;5051155;28;20040;-71
2022/05/31 04:36:44;;;;;;;6.75;3.47;;;;;;;;;;5070868;28;20388;-71
2022/05/31 04:39:09;;;;;;;4.97;3.08;;;;;;;;;;5083256;28;20392;-71
2022/05/31 04:41:35;;;;;;;3.58;2.72;;;;;;;;;;5084513;28;20021;-71
2022/05/31 04:44:04;;;;;;;2.30;2.10;;;;;;;;;;5063797;28;20052;-74
2022/05/31 04:46:31;;;;;;;3.42;2.08;;;;;;;;;;5064870;28;20016;-72
2022/05/31 04:48:57;;;;;;;4.80;2.70;;;;;;;;;;5060653;28;20029;-72
2022/05/31 04:51:24;;;;;;;2.15;1.92;;;;;;;;;;5065894;28;20029;-72
2022/05/31 04:53:50;;;;;;;3.60;2.50;;;;;;;;;;5064103;28;20037;-72
2022/05/31 04:56:20;;;;;;;2.22;2.03;;;;;;;;;;5068013;28;20039;-72
2022/05/31 04:58:50;;;;;;;4.65;2.55;;;;;;;;;;5064994;28;20487;-72
2022/05/31 05:01:16;;;;;;;6.07;2.30;;;;;;;;;;5071045;28;20024;-72
2022/05/31 05:03:43;;;;;;;23.05;18.35;;;;;;;;;;5062659;28;20052;-71
2022/05/31 05:06:10;;;;;;;14.35;8.05;;;;;;;;;;5053641;28;20480;-71
2022/05/31 05:08:37;;;;;;;4.85;2.63;;;;;;;;;;5067592;28;20053;-71
2022/05/31 05:11:04;;;;;;;4.03;2.92;;;;;;;;;;5071993;28;20029;-73
2022/05/31 05:13:30;;;;;;;3.38;2.47;;;;;;;;;;5042681;28;20486;-71
2022/05/31 05:15:57;;;;;;;5.80;2.53;;;;;;;;;;5058753;28;20045;-72
2022/05/31 05:18:24;;;;;;;5.18;2.10;;;;;;;;;;5058133;28;20029;-72
2022/05/31 05:20:50;;;;;;;3.83;2.58;;;;;;;;;;5065297;28;20032;-72
2022/05/31 05:23:16;;;;;;;7.20;2.30;;;;;;;;;;5064614;28;20025;-73
2022/05/31 05:25:47;;;;;;;2.70;2.40;;;;;;;;;;5059996;28;20028;-72
2022/05/31 05:30:57;;;;;;;3.05;2.30;;;;;;;;;;5056958;28;20063;-72
2022/05/31 05:33:23;;;;;;;3.60;2.35;;;;;;;;;;5063509;28;20017;-72
2022/05/31 05:35:49;;;;;;;2.30;2.10;;;;;;;;;;5060705;28;20464;-71
2022/05/31 05:38:15;;;;;;;44.45;28.55;;;;;;;;;;5048475;28;20037;-72
2022/05/31 05:40:41;;;;;;;21.38;12.55;;;;;;;;;;5063373;28;20116;-72
2022/05/31 05:43:08;;;;;;;10.15;5.40;;;;;;;;;;5067278;28;20025;-71
2022/05/31 05:45:34;;;;;;;5.43;2.88;;;;;;;;;;5044618;28;20037;-71
2022/05/31 05:48:00;;;;;;;5.78;2.10;;;;;;;;;;5066775;28;20091;-72
2022/05/31 05:50:26;;;;;;;7.78;2.25;;;;;;;;;;5077119;28;20195;-72
2022/05/31 05:53:00;;;;;;;7.45;2.47;;;;;;;;;;5088835;28;20460;-72
2022/05/31 05:55:26;;;;;;;3.75;2.00;;;;;;;;;;5073846;28;20021;-72
2022/05/31 05:57:54;;;;;;;2.17;1.90;;;;;;;;;;5070760;28;20111;-72
2022/05/31 06:00:21;;;;;;;2.78;2.05;;;;;;;;;;5071115;28;20020;-72
2022/05/31 06:02:48;;;;;;;4.35;2.38;;;;;;;;;;5080830;28;20020;-72
2022/05/31 06:05:21;;;;;;;2.42;1.70;;;;;;;;;;5072667;28;20426;-72
2022/05/31 06:07:52;;;;;;;3.35;2.08;;;;;;;;;;5070131;28;20873;-72
2022/05/31 06:10:23;;;;;;;4.53;1.83;;;;;;;;;;5079940;28;20023;-72
2022/05/31 06:13:01;;;;;;;1.95;1.75;;;;;;;;;;5073767;28;20032;-73
2022/05/31 06:15:30;;;;;;;5.05;2.33;;;;;;;;;;5070394;28;20361;-73
2022/05/31 06:17:58;;;;;;;6.20;2.20;;;;;;;;;;5070669;28;20023;-72
2022/05/31 06:20:24;;;;;;;4.18;2.13;;;;;;;;;;5067528;28;20028;-73
2022/05/31 06:22:50;;;;;;;6.25;2.00;;;;;;;;;;5073915;28;20036;-72
2022/05/31 06:25:20;;;;;;;5.57;1.98;;;;;;;;;;5091346;28;20082;-73
2022/05/31 06:27:46;;;;;;;8.48;2.10;;;;;;;;;;5082295;28;20107;-73
2022/05/31 06:30:12;;;;;;;6.60;2.72;;;;;;;;;;5047392;28;20119;-73
2022/05/31 06:32:38;;;;;;;2.97;2.22;;;;;;;;;;5064935;28;20396;-72
2022/05/31 06:35:04;;;;;;;4.70;1.95;;;;;;;;;;5068932;28;20033;-72
2022/05/31 06:37:31;;;;;;;29.13;17.70;;;;;;;;;;5057953;28;20072;-72
2022/05/31 06:39:57;;;;;;;17.83;10.82;;;;;;;;;;5082824;28;20031;-72
2022/05/31 06:42:23;;;;;;;4.13;2.40;;;;;;;;;;5079713;28;20559;-73
2022/05/31 06:44:49;;;;;;;4.78;1.75;;;;;;;;;;5071168;28;20131;-73
2022/05/31 06:47:15;;;;;;;3.25;1.98;;;;;;;;;;5072878;28;20422;-74
2022/05/31 06:49:41;;;;;;;4.35;1.85;;;;;;;;;;5069789;28;20040;-74
2022/05/31 06:57:40;;;;;;;5.15;3.45;;;;;;;;;;5060365;28;20047;-71
2022/05/31 07:00:08;;;;;;;4.50;1.88;;;;;;;;;;5066830;28;20081;-72
2022/05/31 07:02:34;;;;;;;16.02;8.10;;;;;;;;;;5055274;28;20139;-72
2022/05/31 07:05:00;;;;;;;3.00;1.80;;;;;;;;;;5052803;28;20041;-71
2022/05/31 07:07:26;;;;;;;3.50;1.73;;;;;;;;;;5066217;28;20124;-73
2022/05/31 07:09:53;;;;;;;2.92;1.60;;;;;;;;;;5072064;28;20116;-74
2022/05/31 07:12:20;;;;;;;5.85;2.15;;;;;;;;;;5063613;28;20099;-73
2022/05/31 07:14:46;;;;;;;3.53;2.00;;;;;;;;;;5068253;28;20037;-73
2022/05/31 07:17:12;;;;;;;4.10;1.70;;;;;;;;;;5068473;28;20110;-73
2022/05/31 07:19:38;;;;;;;3.50;1.67;;;;;;;;;;5051608;28;20123;-73
2022/05/31 07:22:05;;;;;;;5.78;1.63;;;;;;;;;;5062635;28;20048;-73
2022/05/31 07:24:31;;;;;;;4.32;1.52;;;;;;;;;;5066904;28;20039;-73
2022/05/31 07:26:57;;;;;;;6.57;1.42;;;;;;;;;;5060578;28;20033;-72
2022/05/31 07:29:23;;;;;;;5.10;1.60;;;;;;;;;;5043720;28;20120;-73
2022/05/31 07:31:50;;;;;;;6.80;1.55;;;;;;;;;;5067037;28;20036;-72
2022/05/31 07:34:16;;;;;;;4.38;1.95;;;;;;;;;;5065973;28;20040;-72
2022/05/31 07:36:43;;;;;;;3.45;1.40;;;19.00;99.90;;;;;;5064459;28;20028;-72
2022/05/31 07:39:12;;;;;;;3.10;1.42;;;20.10;99.90;;;;;;5071191;28;20535;-72
2022/05/31 07:41:38;;;;;;;6.97;1.50;;;;;;;;;;5059367;28;22017;-71
2022/05/31 07:44:04;;;;;;;3.67;1.77;;;;;;;;;;5057933;28;20029;-72
2022/05/31 07:46:30;;;;;;;3.45;1.40;;;;;;;;;;5072963;28;20024;-75
2022/05/31 07:48:57;;;;;;;5.38;1.83;;;22.10;99.90;;;;;;5074353;28;20172;-73
2022/05/31 07:51:23;;;;;;;3.22;1.23;;;;;;;;;;5076740;28;20073;-73
2022/05/31 07:53:51;;;;;;;1.95;0.98;;;;;;;;;;5066887;28;20118;-73
2022/05/31 07:56:17;;;;;;;4.93;1.50;;;;;;;;;;5057514;28;20040;-73
2022/05/31 07:58:43;;;;;;;2.92;1.40;;;;;;;;;;5068682;28;20477;-73
2022/05/31 08:01:13;;;;;;;6.95;1.98;;;;;;;;;;5066881;28;20039;-73
2022/05/31 08:03:39;;;;;;;2.20;1.15;;;;;;;;;;5066023;28;20046;-73
2022/05/31 08:06:07;;;;;;;2.78;1.27;;;;;;;;;;5074843;28;20037;-73
2022/05/31 08:08:33;;;;;;;6.78;1.67;;;;;;;;;;5066267;28;20040;-73
2022/05/31 08:11:10;;;;;;;3.58;1.50;;;;;;;;;;5065048;28;20078;-73
2022/05/31 08:13:36;;;;;;;3.55;1.23;;;;;;;;;;5067786;28;20033;-73
2022/05/31 08:16:04;;;;;;;3.42;1.13;;;24.50;92.00;;;;;;5067824;28;20052;-73
2022/05/31 08:18:30;;;;;;;4.78;1.38;;;;;;;;;;5062413;28;20033;-72
2022/05/31 08:21:00;;;;;;;4.72;1.48;;;24.70;91.50;;;;;;5072252;28;20040;-73
2022/05/31 08:23:26;;;;;;;5.22;1.40;;;;;;;;;;5055707;28;20031;-73
2022/05/31 08:25:54;;;;;;;5.75;1.80;;;25.10;90.00;;;;;;5077288;28;20081;-80
2022/05/31 08:28:20;;;;;;;9.98;3.88;;;;;;;;;;5088856;28;20111;-72
2022/05/31 08:30:47;;;;;;;10.88;5.68;;;;;;;;;;5073687;28;20032;-72
2022/05/31 08:33:13;;;;;;;6.93;1.48;;;;;;;;;;5068106;28;20040;-73
2022/05/31 08:35:39;;;;;;;5.63;1.40;;;;;;;;;;5070147;28;20032;-73
2022/05/31 08:38:05;;;;;;;4.18;1.42;;;25.00;94.80;;;;;;5077029;28;20033;-73
2022/05/31 08:40:41;;;;;;;4.28;1.88;;;25.10;87.50;;;;;;5078986;28;20033;-73
2022/05/31 08:43:07;;;;;;;11.95;1.95;;;;;;;;;;5068212;28;20052;-73
2022/05/31 08:45:59;;;;;;;4.97;2.00;;;;;;;;;;5071184;28;20044;-73
2022/05/31 08:48:25;;;;;;;;;;;;;;;;;;5073602;28;20048;-73
2022/05/31 08:56:59;;;;;;;2.83;1.67;;;;;;;;;;5067578;28;20039;-73
2022/05/31 08:59:31;;;;;;;5.07;2.10;;;;;;;;;;5072857;28;20413;-73
2022/05/31 09:02:07;;;;;;;6.20;2.60;;;23.80;91.20;;;;;;5044993;28;20482;-78
2022/05/31 09:04:33;;;;;;;7.00;2.38;;;;;;;;;;5065257;28;20125;-75
2022/05/31 09:07:05;;;;;;;3.70;2.30;;;;;;;;;;5064864;28;20048;-77
2022/05/31 09:09:41;;;;;;;11.77;4.60;;;;;;;;;;5068900;28;20055;-78
2022/05/31 09:12:22;;;;;;;6.30;2.67;;;;;;;;;;5075811;28;20440;-79
2022/05/31 09:14:56;;;;;;;4.97;2.40;;;;;;;;;;5061434;28;20058;-78
2022/05/31 09:17:27;;;;;;;7.53;2.72;;;;;;;;;;5057366;28;20060;-78
2022/05/31 09:20:02;;;;;;;5.95;2.45;;;;;;;;;;5063084;28;20025;-80
2022/05/31 09:22:28;;;;;;;7.95;2.38;;;;;;;;;;5046630;28;20992;-79
2022/05/31 09:24:54;;;;;;;8.63;2.65;;;;;;;;;;5074182;28;20028;-79
2022/05/31 09:27:28;;;;;;;10.35;2.45;;;25.00;93.60;;;;;;5058835;28;20031;-80
2022/05/31 09:30:06;;;;;;;6.88;2.28;;;;;;;;;;5067949;28;20034;-78
2022/05/31 09:32:35;;;;;;;7.43;2.28;;;;;;;;;;5069587;28;20484;-81
2022/05/31 09:35:27;;;;;;;12.65;3.38;;;25.10;87.50;;;;;;5057483;28;20450;-73
2022/05/31 09:38:29;;;;;;;;;;;25.10;85.20;;;;;;5066615;28;20044;-76
2022/05/31 09:41:24;;;;;;;7.32;2.65;;;24.70;83.80;;;;;;4979468;28;20046;-77
2022/05/31 09:44:08;;;;;;;6.07;2.92;;;;;;;;;;5043103;28;20049;-71
2022/05/31 09:46:52;;;;;;;8.77;2.67;;;;;;;;;;5076789;28;20028;-71
2022/05/31 09:49:36;;;;;;;6.78;2.45;;;23.20;85.00;;;;;;5063416;28;20595;-72
2022/05/31 09:52:07;;;;;;;4.57;2.13;;;22.60;89.10;;;;;;5070805;28;20028;-72
2022/05/31 09:58:03;;;;;;;15.45;3.78;;;;;;;;;;5071337;28;20109;-72
2022/05/31 10:00:28;;;;;;;3.80;2.10;;;22.00;95.50;;;;;;5075342;28;20021;-72
2022/05/31 10:03:11;;;;;;;6.63;2.35;;;;;;;;;;5087123;28;20333;-72
2022/05/31 10:05:38;;;;;;;10.52;6.20;;;21.90;90.30;;;;;;5076819;28;20415;-71
2022/05/31 10:08:15;;;;;;;4.97;2.53;;;;;;;;;;5073326;28;20139;-71
2022/05/31 10:10:44;;;;;;;2.55;1.83;;;;;;;;;;5069067;28;20033;-73
2022/05/31 10:13:10;;;;;;;5.43;2.05;;;;;;;;;;5083764;28;20413;-72
2022/05/31 10:15:37;;;;;;;5.03;2.10;;;;;;;;;;5075170;28;20066;-72
2022/05/31 10:18:04;;;;;;;6.85;2.55;;;;;;;;;;5076687;28;20028;-72
2022/05/31 10:20:31;;;;;;;7.18;2.20;;;;;;;;;;5054243;28;20410;-72
2022/05/31 10:23:15;;;;;;;4.32;2.75;;;21.90;90.70;;;;;;5082325;28;20059;-72
2022/05/31 10:25:41;;;;;;;10.45;2.80;;;;;;;;;;5069521;28;20040;-72
2022/05/31 10:28:22;;;;;;;8.15;2.40;;;;;;;;;;5081292;28;20422;-72
2022/05/31 10:31:05;;;;;;;4.22;1.88;;;21.50;91.30;;;;;;5071608;28;20469;-72
2022/05/31 10:33:34;;;;;;;5.32;2.25;;;21.90;96.30;;;;;;5061983;28;20025;-71
2022/05/31 10:36:17;;;;;;;4.93;2.00;;;;;;;;;;5085191;28;20472;-71
2022/05/31 10:38:46;;;;;;;7.70;3.33;;;21.70;90.50;;;;;;5093662;28;20069;-72
2022/05/31 10:41:30;;;;;;;5.20;2.40;;;22.30;90.90;;;;;;5076332;28;23086;-71
2022/05/31 10:44:14;;;;;;;5.60;1.80;;;;;;;;;;5054840;28;20037;-72
2022/05/31 10:46:44;;;;;;;6.07;2.70;;;22.40;90.20;;;;;;5084204;28;20149;-72
2022/05/31 10:49:20;;;;;;;3.92;1.63;;;;;;;;;;5073352;28;20032;-71
2022/05/31 10:51:46;;;;;;;3.83;1.75;;;;;;;;;;5073119;28;20213;-74
2022/05/31 10:54:20;;;;;;;3.35;1.67;;;;;;;;;;5085453;28;20495;-72
2022/05/31 10:57:09;;;;;;;7.28;2.55;;;;;;;;;;5071427;28;20039;-78
2022/05/31 11:00:04;;;;;;;3.53;1.88;;;22.20;89.70;;;;;;5071356;28;20115;-73
2022/05/31 11:02:47;;;;;;;5.43;1.63;;;;;;;;;;5045202;28;20432;-73
2022/05/31 11:05:21;;;;;;;4.43;1.92;;;23.00;84.40;;;;;;5052684;28;20036;-72
2022/05/31 11:13:39;;;;;;;6.05;1.90;;;;;;;;;;5083025;28;20043;-73
2022/05/31 11:16:24;;;;;;;6.43;2.10;;;;;;;;;;5069347;28;20036;-73
2022/05/31 11:19:15;;;;;;;4.40;1.95;;;22.80;90.00;;;;;;5061161;28;20082;-73
2022/05/31 11:22:28;;;;;;;7.05;2.08;;;22.40;90.20;;;;;;5069085;28;20025;-73
2022/05/31 11:25:12;;;;;;;6.90;2.05;;;;;;;;;;5051534;28;20045;-73
2022/05/31 11:27:45;;;;;;;7.05;2.85;;;;;;;;;;5069198;28;20028;-73
2022/05/31 11:30:21;;;;;;;9.32;2.40;;;;;;;;;;5071084;28;20111;-73
2022/05/31 11:33:05;;;;;;;4.35;2.20;;;21.80;86.60;;;;;;5071784;28;20425;-73
2022/05/31 11:35:56;;;;;;;5.97;2.08;;;22.10;88.40;;;;;;5065799;28;20060;-73
2022/05/31 11:38:28;;;;;;;5.53;2.50;;;;;;;;;;5065233;28;20029;-73
2022/05/31 11:41:15;;;;;;;6.65;2.45;;;;;;;;;;5072184;28;20875;-73
2022/05/31 11:43:59;;;;;;;4.82;2.42;;;21.60;88.70;;;;;;5041368;28;20033;-73
2022/05/31 11:46:50;;;;;;;7.05;2.60;;;21.50;90.00;;;;;;5074721;28;20020;-73
2022/05/31 11:49:31;;;;;;;7.50;2.53;;;;;;;;;;5076101;28;20039;-73
2022/05/31 11:51:57;;;;;;;5.78;2.53;;;;;;;;;;5068250;28;20040;-73
2022/05/31 11:54:42;;;;;;;7.40;2.97;;;;;;;;;;5076382;28;20027;-72
2022/05/31 11:57:14;;;;;;;9.85;3.00;;;;;;;;;;5058935;28;20567;-72
2022/05/31 11:59:54;;;;;;;3.53;2.22;;;;;;;;;;5069645;28;20078;-72
2022/05/31 12:02:38;;;;;;;8.13;2.15;;;;;;;;;;5063108;28;20376;-73
2022/05/31 12:05:08;;;;;;;6.25;2.28;;;;;;;;;;5054296;28;20139;-72
2022/05/31 12:07:44;;;;;;;5.53;2.40;;;;;;;;;;5070284;28;20484;-73
2022/05/31 12:10:23;;;;;;;6.18;2.33;;;21.40;91.30;;;;;;5071624;28;20103;-72
2022/05/31 12:12:50;;;;;;;6.28;3.10;;;21.50;96.50;;;;;;5063890;28;20082;-73
2022/05/31 12:15:22;;;;;;;6.13;2.63;;;21.60;91.40;;;;;;5070710;28;20033;-73
2022/05/31 12:18:07;;;;;;;8.10;2.85;;;;;;;;;;5062165;28;20029;-72
2022/05/31 12:21:05;;;;;;;3.55;2.30;;;21.30;92.10;;;;;;5054630;28;20120;-73
2022/05/31 12:23:34;;;;;;;6.13;2.20;;;;;;;;;;5058093;28;20043;-72
2022/05/31 12:26:04;;;;;;;3.72;2.10;;;21.10;92.00;;;;;;5071026;28;20028;-73
2022/05/31 12:28:29;;;;;;;9.85;2.30;;;;;;;;;;5065575;28;20021;-72
2022/05/31 12:31:21;;;;;;;5.47;2.50;;;21.00;92.90;;;;;;5068220;28;20024;-72
2022/05/31 12:33:47;;;;;;;7.63;2.30;;;;;;;;;;5062052;28;20039;-72
2022/05/31 12:36:23;;;;;;;4.85;2.08;;;;;;;;;;5070487;28;20032;-72
2022/05/31 12:38:53;;;;;;;5.85;2.60;;;;;;;;;;5066550;28;20028;-72
2022/05/31 12:41:34;;;;;;;4.95;2.38;;;20.00;91.90;;;;;;5071150;28;20039;-72
2022/05/31 12:44:00;;;;;;;6.93;2.22;;;;;;;;;;5070994;28;20037;-72
2022/05/31 12:46:32;;;;;;;4.88;2.30;;;;;;;;;;5070095;28;20036;-72
2022/05/31 12:48:58;;;;;;;;;;;;;;;;;;5072786;28;20040;-72
2022/05/31 12:51:24;;;;;;;5.97;1.95;;;;;;;;;;5065634;28;20049;-73
2022/05/31 12:53:50;;;;;;;3.47;2.22;;;;;;;;;;5062493;28;20025;-73
2022/05/31 12:56:28;;;;;;;7.57;3.00;;;;;;;;;;5063415;28;20036;-73
2022/05/31 12:58:54;;;;;;;8.35;2.28;;;;;;;;;;5065168;28;20057;-73
2022/05/31 13:01:23;;;;;;;6.40;2.80;;;;;;;;;;5048525;28;20063;-71
2022/05/31 13:03:49;;;;;;;8.93;4.45;;;;;;;;;;5062997;28;20032;-72
2022/05/31 13:06:34;;;;;;;7.72;1.90;;;;;;;;;;5046306;28;20072;-73
2022/05/31 13:09:02;;;;;;;4.90;2.20;;;20.10;98.90;;;;;;5061428;28;20057;-73
2022/05/31 13:19:51;;;;;;;6.53;2.97;;;;;;;;;;5064908;28;20078;-74
2022/05/31 13:22:19;;;;;;;10.13;2.90;;;20.70;98.30;;;;;;5069800;28;20024;-75
2022/05/31 13:24:51;;;;;;;4.57;2.55;;;;;;;;;;5073395;28;20045;-75
2022/05/31 13:27:26;;;;;;;5.28;2.50;;;;;;;;;;5069468;28;20028;-74
2022/05/31 13:30:01;;;;;;;6.57;2.20;;;;;;;;;;5049414;28;20029;-75
2022/05/31 13:32:31;;;;;;;4.95;2.28;;;;;;;;;;5062741;28;20051;-73
2022/05/31 13:34:57;;;;;;;7.00;3.10;;;;;;;;;;5059571;28;20116;-73
2022/05/31 13:37:23;;;;;;;7.15;2.42;;;;;;;;;;5062638;28;20140;-73
2022/05/31 13:39:50;;;;;;;7.32;2.47;;;;;;;;;;5063075;28;20044;-74
2022/05/31 13:42:23;;;;;;;8.93;2.80;;;;;;;;;;5062761;28;20117;-73
2022/05/31 13:44:49;;;;;;;7.47;4.15;;;20.60;91.80;;;;;;5068486;28;20416;-73
2022/05/31 13:47:17;;;;;;;6.53;2.47;;;;;;;;;;5065821;28;20037;-73
2022/05/31 13:49:45;;;;;;;5.43;3.25;;;;;;;;;;5069855;28;20021;-72
2022/05/31 13:52:27;;;;;;;3.75;2.63;;;;;;;;;;5063125;28;20033;-73
2022/05/31 13:54:54;;;;;;;6.32;2.85;;;;;;;;;;5062516;28;21939;-73
2022/05/31 13:57:24;;;;;;;5.82;2.58;;;;;;;;;;5067161;28;20029;-73
2022/05/31 13:59:53;;;;;;;6.65;2.72;;;20.10;93.90;;;;;;5064096;28;20539;-73
2022/05/31 14:02:26;;;;;;;5.13;2.40;;;20.30;94.60;;;;;;5067389;28;20629;-73
2022/05/31 14:04:58;;;;;;;7.00;2.95;;;;;;;;;;5068288;28;20191;-73
2022/05/31 14:07:32;;;;;;;8.15;2.85;;;20.00;94.10;;;;;;5065903;28;20045;-73
2022/05/31 14:09:59;;;;;;;4.05;2.60;;;20.00;93.40;;;;;;5067773;28;20507;-74
2022/05/31 14:12:28;;;;;;;4.85;2.33;;;20.00;94.70;;;;;;5061365;28;20029;-76
2022/05/31 14:14:55;;;;;;;4.70;2.50;;;;;;;;;;5064116;28;20152;-73
2022/05/31 14:17:39;;;;;;;6.38;2.58;;;;;;;;;;5070610;28;20029;-74
2022/05/31 14:20:30;;;;;;;3.22;1.90;;;19.40;95.50;;;;;;5064189;28;20039;-74
2022/05/31 14:23:22;;;;;;;5.63;2.55;;;19.20;95.90;;;;;;5069841;28;20044;-74
2022/05/31 14:25:51;;;;;;;5.47;1.80;;;;;;;;;;5060655;28;20045;-74
2022/05/31 14:28:24;;;;;;;8.18;2.03;;;;;;;;;;5064574;28;20643;-74
2022/05/31 14:30:50;;;;;;;2.75;1.52;;;;;;;;;;5064643;28;20040;-74
2022/05/31 14:33:18;;;;;;;3.00;1.70;;;19.00;99.90;;;;;;5067702;28;20037;-74
2022/05/31 14:35:51;;;;;;;2.10;1.42;;;;;;;;;;5068586;28;20383;-74
2022/05/31 14:38:17;;;;;;;4.20;1.75;;;;;;;;;;5066250;28;20029;-74
2022/05/31 14:40:51;;;;;;;3.33;1.45;;;;;;;;;;5065451;28;20437;-74
2022/05/31 14:43:32;;;;;;;3.50;1.65;;;19.40;95.10;;;;;;5051473;28;20039;-74
2022/05/31 14:45:58;;;;;;;3.40;1.20;;;;;;;;;;5060588;28;20041;-75
2022/05/31 14:48:50;;;;;;;2.63;1.45;;;19.70;94.40;;;;;;5066024;28;20031;-75
2022/05/31 14:51:18;;;;;;;4.30;1.30;;;;;;;;;;5060306;28;20044;-75
2022/05/31 14:53:47;;;;;;;1.98;1.20;;;19.80;94.80;;;;;;5062742;28;20039;-72
2022/05/31 14:56:27;;;;;;;2.00;1.67;;;20.10;93.10;;;;;;5063426;28;20028;-74
2022/05/31 14:58:57;;;;;;;5.65;1.83;;;;;;;;;;5062863;28;20074;-74
2022/05/31 15:01:43;;;;;;;3.00;1.60;;;20.60;93.60;;;;;;5065827;28;20146;-74
2022/05/31 15:04:28;;;;;;;2.15;1.02;;;21.10;91.30;;;;;;5040836;28;20037;-75
2022/05/31 15:07:05;;;;;;;3.22;1.00;;;;;;;;;;5063334;28;20369;-75
2022/05/31 15:09:33;;;;;;;2.72;1.60;;;;;;;;;;5065414;28;20025;-75
2022/05/31 15:20:15;;;;;;;2.80;1.30;;;;;;;;;;5069483;28;20055;-81
2022/05/31 15:22:42;;;;;;;4.18;1.50;;;;;;;;;;5076527;28;20029;-81
2022/05/31 15:25:09;;;;;;;3.58;1.25;;;;;;;;;;5077353;28;20040;-80